Sunday, July 22, 2018, 2:53 AM EDT
Back to Local

KMGW, Morgantown Muni-hart Field

Location: Morgantown, WV, United States Lat: 39.65
Local Time: 2:53 AM EDT ( 6:53 GMT) Lon: -79.917
Time Zone: US/Eastern Elev: 1246 ft

Show me the last for .
Show Decoded

2018-07-22 01:53 METAR KMGW 220553Z AUTO 13004KT 10SM FEW020 18/15 A2977 RMK AO2 SLP071 T01830150
                 10222 20183 55014 =
2018-07-22 01:48 METAR KMGW 220548Z AUTO 12004KT 10SM SCT020 18/15 A2977 RMK AO2 =
2018-07-22 00:53 METAR KMGW 220453Z AUTO 00000KT 10SM OVC021 19/15 A2979 RMK AO2 SLP078 T01890150
                 402780189 =
2018-07-21 23:53 METAR KMGW 220353Z AUTO 10009KT 10SM OVC022 19/15 A2981 RMK AO2 SLP086 T01940150
                 =
2018-07-21 23:44 METAR KMGW 220344Z AUTO 07005KT 10SM BKN024 19/15 A2981 RMK AO2 T01940150 =
2018-07-21 22:53 METAR KMGW 220253Z 08005KT 10SM CLR 19/16 A2981 RMK AO2 SLP087 DSNT LGT SW-W
                 T01940156 58003 =
2018-07-21 21:53 METAR KMGW 220153Z 09011G22KT 10SM OVC120 20/16 A2982 RMK AO2 SLP090 T02000156 =
2018-07-21 20:53 METAR KMGW 220053Z 08006KT 10SM SCT120 21/16 A2983 RMK AO2 SLP091 T02060156 =
2018-07-21 19:53 METAR KMGW 212353Z 09007KT 10SM SCT120 22/17 A2983 RMK AO2 SLP090 LOWER CLOUDS
                 EAST OF RDGS 60000 T02220167 10278 20222 58002 =
2018-07-21 18:53 METAR KMGW 212253Z 08009G16KT 10SM FEW120 23/17 A2983 RMK AO2 SLP091 T02330167 =
2018-07-21 17:53 METAR KMGW 212153Z VRB06G15KT 10SM OVC110 23/17 A2983 RMK AO2 RAE08 SLP091 P0000
                 T02330167 =
2018-07-21 16:53 METAR KMGW 212053Z 30003KT 10SM -RA BKN075 OVC100 23/19 A2983 RMK AO2 RAB41
                 SLP092 P0000 60000 T02330194 55007 =
2018-07-21 15:53 METAR KMGW 211953Z 11011KT 10SM BKN095 26/16 A2982 RMK AO2 SLP089 T02610161 =
2018-07-21 14:53 METAR KMGW 211853Z 11008KT 10SM FEW050 27/17 A2983 RMK AO2 LTG DSNT SW SLP091
                 T02670172 =
2018-07-21 13:53 METAR KMGW 211753Z 13010KT 10SM FEW042 SCT120 27/17 A2985 RMK AO2 SLP098
                 T02670167 10272 20217 58015 =
2018-07-21 12:53 METAR KMGW 211653Z 13012G15KT 10SM CLR 26/17 A2988 RMK AO2 SLP106 T02560167 =
2018-07-21 11:53 METAR KMGW 211553Z VRB06KT 10SM CLR 24/17 A2990 RMK AO2 SLP114 T02390167 =
2018-07-21 10:53 METAR KMGW 211453Z VRB03KT 10SM OVC060 23/16 A2990 RMK AO2 SLP117 T02280161
                 55002 =
2018-07-21 09:53 METAR KMGW 211353Z 00000KT 10SM BKN060 OVC085 23/17 A2989 RMK AO2 SLP114
                 T02280167 =
2018-07-21 08:53 METAR KMGW 211253Z 13006KT 10SM OVC100 22/16 A2990 RMK AO2 SLP116 T02170161 =
2018-07-21 07:53 METAR KMGW 211153Z 00000KT 10SM OVC100 22/16 A2990 RMK AO2 SLP118 70027
                 T02170161 10222 20200 53007 =
2018-07-21 06:53 METAR KMGW 211053Z AUTO 22003KT 10SM CLR 21/16 A2990 RMK AO2 SLP116 T02110156 =
2018-07-21 05:53 METAR KMGW 210953Z AUTO VRB04KT 10SM CLR 22/15 A2989 RMK AO2 SLP111 T02170150 =
2018-07-21 04:53 METAR KMGW 210853Z AUTO 12006KT 10SM CLR 21/16 A2988 RMK AO2 SLP111 T02110156
                 58010 =
2018-07-21 03:53 METAR KMGW 210753Z AUTO 18004KT 10SM CLR 21/16 A2990 RMK AO2 SLP114 T02110156 =

Support USWX by starting your Amazon purchase here.